sensor_id;sensor_type;location;lat;lon;timestamp;P1;durP1;ratioP1;P2;durP2;ratioP2
18732;SDS011;9495;51.210;2.934;2022-09-03T00:00:31;9.80;;;7.20;;
18732;SDS011;9495;51.210;2.934;2022-09-03T00:03:03;9.43;;;7.18;;
18732;SDS011;9495;51.210;2.934;2022-09-03T00:05:39;11.15;;;7.30;;
18732;SDS011;9495;51.210;2.934;2022-09-03T00:08:13;10.52;;;7.88;;
18732;SDS011;9495;51.210;2.934;2022-09-03T00:10:48;11.88;;;7.72;;
18732;SDS011;9495;51.210;2.934;2022-09-03T00:13:21;10.30;;;8.10;;
18732;SDS011;9495;51.210;2.934;2022-09-03T00:15:52;8.93;;;7.55;;
18732;SDS011;9495;51.210;2.934;2022-09-03T00:18:26;9.82;;;7.47;;
18732;SDS011;9495;51.210;2.934;2022-09-03T00:21:02;14.45;;;9.07;;
18732;SDS011;9495;51.210;2.934;2022-09-03T00:23:34;9.57;;;8.05;;
18732;SDS011;9495;51.210;2.934;2022-09-03T00:26:09;11.77;;;8.88;;
18732;SDS011;9495;51.210;2.934;2022-09-03T00:28:45;10.00;;;8.05;;
18732;SDS011;9495;51.210;2.934;2022-09-03T00:31:19;11.70;;;8.32;;
18732;SDS011;9495;51.210;2.934;2022-09-03T00:33:53;10.63;;;8.35;;
18732;SDS011;9495;51.210;2.934;2022-09-03T00:36:30;10.73;;;9.07;;
18732;SDS011;9495;51.210;2.934;2022-09-03T00:39:01;11.55;;;8.45;;
18732;SDS011;9495;51.210;2.934;2022-09-03T00:41:34;10.52;;;8.55;;
18732;SDS011;9495;51.210;2.934;2022-09-03T00:44:16;11.27;;;9.30;;
18732;SDS011;9495;51.210;2.934;2022-09-03T00:47:05;12.52;;;8.60;;
18732;SDS011;9495;51.210;2.934;2022-09-03T00:49:44;10.63;;;8.07;;
18732;SDS011;9495;51.210;2.934;2022-09-03T00:52:25;9.60;;;8.60;;
18732;SDS011;9495;51.210;2.934;2022-09-03T00:55:07;12.18;;;9.68;;
18732;SDS011;9495;51.210;2.934;2022-09-03T00:57:43;11.82;;;9.45;;
18732;SDS011;9495;51.210;2.934;2022-09-03T01:00:23;15.02;;;9.30;;
18732;SDS011;9495;51.210;2.934;2022-09-03T01:03:00;11.35;;;9.05;;
18732;SDS011;9495;51.210;2.934;2022-09-03T01:05:40;11.50;;;10.23;;
18732;SDS011;9495;51.210;2.934;2022-09-03T01:08:26;10.30;;;9.20;;
18732;SDS011;9495;51.210;2.934;2022-09-03T01:11:07;12.43;;;9.05;;
18732;SDS011;9495;51.210;2.934;2022-09-03T01:13:42;15.07;;;9.60;;
18732;SDS011;9495;51.210;2.934;2022-09-03T01:16:19;11.98;;;9.80;;
18732;SDS011;9495;51.210;2.934;2022-09-03T01:18:56;10.52;;;9.43;;
18732;SDS011;9495;51.210;2.934;2022-09-03T01:21:50;11.52;;;10.32;;
18732;SDS011;9495;51.210;2.934;2022-09-03T01:24:38;15.90;;;14.25;;
18732;SDS011;9495;51.210;2.934;2022-09-03T01:27:29;17.02;;;14.35;;
18732;SDS011;9495;51.210;2.934;2022-09-03T01:30:11;18.55;;;16.58;;
18732;SDS011;9495;51.210;2.934;2022-09-03T01:32:45;19.73;;;16.17;;
18732;SDS011;9495;51.210;2.934;2022-09-03T01:35:21;19.08;;;16.67;;
18732;SDS011;9495;51.210;2.934;2022-09-03T01:37:59;19.35;;;17.10;;
18732;SDS011;9495;51.210;2.934;2022-09-03T01:40:34;20.08;;;16.10;;
18732;SDS011;9495;51.210;2.934;2022-09-03T01:43:13;20.80;;;16.67;;
18732;SDS011;9495;51.210;2.934;2022-09-03T01:46:04;20.67;;;17.02;;
18732;SDS011;9495;51.210;2.934;2022-09-03T01:48:43;20.48;;;17.63;;
18732;SDS011;9495;51.210;2.934;2022-09-03T01:51:17;20.58;;;17.38;;
18732;SDS011;9495;51.210;2.934;2022-09-03T01:56:59;22.13;;;16.50;;
18732;SDS011;9495;51.210;2.934;2022-09-03T02:00:02;19.23;;;16.48;;
18732;SDS011;9495;51.210;2.934;2022-09-03T02:02:34;19.55;;;17.55;;
18732;SDS011;9495;51.210;2.934;2022-09-03T02:05:04;21.33;;;17.77;;
18732;SDS011;9495;51.210;2.934;2022-09-03T02:07:36;18.98;;;17.13;;
18732;SDS011;9495;51.210;2.934;2022-09-03T02:10:06;19.08;;;17.08;;
18732;SDS011;9495;51.210;2.934;2022-09-03T02:12:37;19.92;;;17.40;;
18732;SDS011;9495;51.210;2.934;2022-09-03T02:15:10;18.58;;;16.58;;
18732;SDS011;9495;51.210;2.934;2022-09-03T02:17:42;19.42;;;17.38;;
18732;SDS011;9495;51.210;2.934;2022-09-03T02:20:16;19.55;;;17.65;;
18732;SDS011;9495;51.210;2.934;2022-09-03T02:22:47;19.77;;;17.67;;
18732;SDS011;9495;51.210;2.934;2022-09-03T02:25:16;19.85;;;17.75;;
18732;SDS011;9495;51.210;2.934;2022-09-03T02:27:44;20.00;;;17.77;;
18732;SDS011;9495;51.210;2.934;2022-09-03T02:30:14;21.95;;;19.15;;
18732;SDS011;9495;51.210;2.934;2022-09-03T02:32:45;21.33;;;19.05;;
18732;SDS011;9495;51.210;2.934;2022-09-03T02:35:13;25.10;;;19.58;;
18732;SDS011;9495;51.210;2.934;2022-09-03T02:37:42;21.70;;;19.23;;
18732;SDS011;9495;51.210;2.934;2022-09-03T02:40:10;24.40;;;19.50;;
18732;SDS011;9495;51.210;2.934;2022-09-03T02:42:38;22.73;;;19.63;;
18732;SDS011;9495;51.210;2.934;2022-09-03T02:45:09;22.00;;;19.50;;
18732;SDS011;9495;51.210;2.934;2022-09-03T02:47:48;21.42;;;19.17;;
18732;SDS011;9495;51.210;2.934;2022-09-03T02:50:19;25.15;;;19.77;;
18732;SDS011;9495;51.210;2.934;2022-09-03T02:52:48;22.23;;;19.45;;
18732;SDS011;9495;51.210;2.934;2022-09-03T02:55:17;23.05;;;20.27;;
18732;SDS011;9495;51.210;2.934;2022-09-03T02:57:46;23.85;;;20.85;;
18732;SDS011;9495;51.210;2.934;2022-09-03T03:00:14;22.23;;;19.92;;
18732;SDS011;9495;51.210;2.934;2022-09-03T03:02:44;23.58;;;21.00;;
18732;SDS011;9495;51.210;2.934;2022-09-03T03:05:14;22.27;;;19.98;;
18732;SDS011;9495;51.210;2.934;2022-09-03T03:07:50;23.58;;;20.55;;
18732;SDS011;9495;51.210;2.934;2022-09-03T03:10:18;23.48;;;20.80;;
18732;SDS011;9495;51.210;2.934;2022-09-03T03:12:47;25.17;;;20.70;;
18732;SDS011;9495;51.210;2.934;2022-09-03T03:15:15;22.73;;;20.33;;
18732;SDS011;9495;51.210;2.934;2022-09-03T03:17:44;27.45;;;21.80;;
18732;SDS011;9495;51.210;2.934;2022-09-03T03:20:14;24.60;;;21.60;;
18732;SDS011;9495;51.210;2.934;2022-09-03T03:22:42;23.60;;;21.13;;
18732;SDS011;9495;51.210;2.934;2022-09-03T03:25:11;25.30;;;22.58;;
18732;SDS011;9495;51.210;2.934;2022-09-03T03:27:39;27.15;;;22.45;;
18732;SDS011;9495;51.210;2.934;2022-09-03T03:30:09;27.27;;;22.27;;
18732;SDS011;9495;51.210;2.934;2022-09-03T03:32:38;26.08;;;23.25;;
18732;SDS011;9495;51.210;2.934;2022-09-03T03:35:07;25.60;;;22.83;;
18732;SDS011;9495;51.210;2.934;2022-09-03T03:37:38;25.73;;;22.92;;
18732;SDS011;9495;51.210;2.934;2022-09-03T03:40:07;27.45;;;23.85;;
18732;SDS011;9495;51.210;2.934;2022-09-03T03:42:36;26.85;;;24.05;;
18732;SDS011;9495;51.210;2.934;2022-09-03T03:45:05;29.63;;;23.77;;
18732;SDS011;9495;51.210;2.934;2022-09-03T03:47:35;25.70;;;22.92;;
18732;SDS011;9495;51.210;2.934;2022-09-03T03:50:04;28.13;;;24.35;;
18732;SDS011;9495;51.210;2.934;2022-09-03T03:52:33;28.98;;;24.70;;
18732;SDS011;9495;51.210;2.934;2022-09-03T03:55:02;29.92;;;25.08;;
18732;SDS011;9495;51.210;2.934;2022-09-03T03:57:32;28.30;;;24.40;;
18732;SDS011;9495;51.210;2.934;2022-09-03T04:00:01;27.33;;;24.23;;
18732;SDS011;9495;51.210;2.934;2022-09-03T04:02:30;29.20;;;24.55;;
18732;SDS011;9495;51.210;2.934;2022-09-03T04:05:04;30.70;;;24.50;;
18732;SDS011;9495;51.210;2.934;2022-09-03T04:07:33;27.88;;;24.85;;
18732;SDS011;9495;51.210;2.934;2022-09-03T04:10:03;28.50;;;25.38;;
18732;SDS011;9495;51.210;2.934;2022-09-03T04:12:32;28.63;;;25.60;;
18732;SDS011;9495;51.210;2.934;2022-09-03T04:15:00;29.48;;;25.95;;
18732;SDS011;9495;51.210;2.934;2022-09-03T04:17:29;29.73;;;24.17;;
18732;SDS011;9495;51.210;2.934;2022-09-03T04:19:57;28.60;;;24.95;;
18732;SDS011;9495;51.210;2.934;2022-09-03T04:22:26;29.52;;;26.30;;
18732;SDS011;9495;51.210;2.934;2022-09-03T04:24:55;29.17;;;25.73;;
18732;SDS011;9495;51.210;2.934;2022-09-03T04:27:25;29.35;;;25.58;;
18732;SDS011;9495;51.210;2.934;2022-09-03T04:29:53;29.45;;;25.13;;
18732;SDS011;9495;51.210;2.934;2022-09-03T04:32:22;31.10;;;26.23;;
18732;SDS011;9495;51.210;2.934;2022-09-03T04:35:07;32.83;;;26.65;;
18732;SDS011;9495;51.210;2.934;2022-09-03T04:37:36;30.58;;;26.50;;
18732;SDS011;9495;51.210;2.934;2022-09-03T04:40:05;32.05;;;25.95;;
18732;SDS011;9495;51.210;2.934;2022-09-03T04:42:35;30.80;;;26.00;;
18732;SDS011;9495;51.210;2.934;2022-09-03T04:45:03;29.25;;;25.95;;
18732;SDS011;9495;51.210;2.934;2022-09-03T04:47:32;31.40;;;27.20;;
18732;SDS011;9495;51.210;2.934;2022-09-03T04:50:01;35.00;;;28.02;;
18732;SDS011;9495;51.210;2.934;2022-09-03T04:52:30;30.92;;;26.30;;
18732;SDS011;9495;51.210;2.934;2022-09-03T04:54:59;29.38;;;26.27;;
18732;SDS011;9495;51.210;2.934;2022-09-03T04:57:27;31.30;;;27.25;;
18732;SDS011;9495;51.210;2.934;2022-09-03T05:00:01;33.38;;;27.05;;
18732;SDS011;9495;51.210;2.934;2022-09-03T05:02:30;36.47;;;28.55;;
18732;SDS011;9495;51.210;2.934;2022-09-03T05:04:58;32.28;;;27.88;;
18732;SDS011;9495;51.210;2.934;2022-09-03T05:07:26;33.60;;;28.55;;
18732;SDS011;9495;51.210;2.934;2022-09-03T05:10:04;34.10;;;29.10;;
18732;SDS011;9495;51.210;2.934;2022-09-03T05:12:33;32.85;;;27.92;;
18732;SDS011;9495;51.210;2.934;2022-09-03T05:15:03;33.03;;;27.92;;
18732;SDS011;9495;51.210;2.934;2022-09-03T05:17:32;37.35;;;30.23;;
18732;SDS011;9495;51.210;2.934;2022-09-03T05:20:04;35.05;;;30.08;;
18732;SDS011;9495;51.210;2.934;2022-09-03T05:22:33;35.28;;;28.95;;
18732;SDS011;9495;51.210;2.934;2022-09-03T05:25:01;35.63;;;29.05;;
18732;SDS011;9495;51.210;2.934;2022-09-03T05:27:30;34.40;;;28.73;;
18732;SDS011;9495;51.210;2.934;2022-09-03T05:29:58;32.40;;;27.98;;
18732;SDS011;9495;51.210;2.934;2022-09-03T05:32:30;33.92;;;28.90;;
18732;SDS011;9495;51.210;2.934;2022-09-03T05:34:59;41.70;;;29.58;;
18732;SDS011;9495;51.210;2.934;2022-09-03T05:37:28;39.15;;;27.90;;
18732;SDS011;9495;51.210;2.934;2022-09-03T05:39:56;35.67;;;28.55;;
18732;SDS011;9495;51.210;2.934;2022-09-03T05:42:25;34.22;;;28.15;;
18732;SDS011;9495;51.210;2.934;2022-09-03T05:44:54;37.92;;;28.58;;
18732;SDS011;9495;51.210;2.934;2022-09-03T05:47:23;39.90;;;29.55;;
18732;SDS011;9495;51.210;2.934;2022-09-03T05:49:52;36.60;;;29.45;;
18732;SDS011;9495;51.210;2.934;2022-09-03T05:52:20;32.53;;;28.63;;
18732;SDS011;9495;51.210;2.934;2022-09-03T05:54:49;34.42;;;28.95;;
18732;SDS011;9495;51.210;2.934;2022-09-03T05:57:17;47.67;;;29.95;;
18732;SDS011;9495;51.210;2.934;2022-09-03T05:59:45;36.40;;;29.25;;
18732;SDS011;9495;51.210;2.934;2022-09-03T06:02:14;43.08;;;30.00;;
18732;SDS011;9495;51.210;2.934;2022-09-03T06:04:45;37.55;;;29.67;;
18732;SDS011;9495;51.210;2.934;2022-09-03T06:07:14;37.17;;;31.30;;
18732;SDS011;9495;51.210;2.934;2022-09-03T06:09:42;42.65;;;30.92;;
18732;SDS011;9495;51.210;2.934;2022-09-03T06:12:11;40.78;;;30.75;;
18732;SDS011;9495;51.210;2.934;2022-09-03T06:14:39;38.70;;;30.30;;
18732;SDS011;9495;51.210;2.934;2022-09-03T06:17:08;36.25;;;31.70;;
18732;SDS011;9495;51.210;2.934;2022-09-03T06:19:38;41.50;;;31.02;;
18732;SDS011;9495;51.210;2.934;2022-09-03T06:22:06;37.15;;;31.27;;
18732;SDS011;9495;51.210;2.934;2022-09-03T06:24:36;39.67;;;31.58;;
18732;SDS011;9495;51.210;2.934;2022-09-03T06:27:04;41.10;;;31.48;;
18732;SDS011;9495;51.210;2.934;2022-09-03T06:29:34;39.25;;;31.13;;
18732;SDS011;9495;51.210;2.934;2022-09-03T06:32:04;37.00;;;30.15;;
18732;SDS011;9495;51.210;2.934;2022-09-03T06:34:32;41.03;;;32.38;;
18732;SDS011;9495;51.210;2.934;2022-09-03T06:37:01;40.63;;;30.38;;
18732;SDS011;9495;51.210;2.934;2022-09-03T06:39:29;40.25;;;30.33;;
18732;SDS011;9495;51.210;2.934;2022-09-03T06:41:58;34.95;;;28.33;;
18732;SDS011;9495;51.210;2.934;2022-09-03T06:44:27;33.60;;;27.55;;
18732;SDS011;9495;51.210;2.934;2022-09-03T06:46:55;31.83;;;27.58;;
18732;SDS011;9495;51.210;2.934;2022-09-03T06:49:26;36.08;;;27.85;;
18732;SDS011;9495;51.210;2.934;2022-09-03T06:51:56;32.05;;;26.77;;
18732;SDS011;9495;51.210;2.934;2022-09-03T06:54:24;33.47;;;28.63;;
18732;SDS011;9495;51.210;2.934;2022-09-03T06:56:52;31.42;;;27.00;;
18732;SDS011;9495;51.210;2.934;2022-09-03T06:59:22;35.47;;;26.38;;
18732;SDS011;9495;51.210;2.934;2022-09-03T07:01:50;32.30;;;27.17;;
18732;SDS011;9495;51.210;2.934;2022-09-03T07:04:19;31.50;;;25.95;;
18732;SDS011;9495;51.210;2.934;2022-09-03T07:06:50;30.48;;;27.08;;
18732;SDS011;9495;51.210;2.934;2022-09-03T07:09:18;34.05;;;27.13;;
18732;SDS011;9495;51.210;2.934;2022-09-03T07:11:46;32.15;;;26.27;;
18732;SDS011;9495;51.210;2.934;2022-09-03T07:14:15;36.88;;;26.00;;
18732;SDS011;9495;51.210;2.934;2022-09-03T07:16:47;29.73;;;25.67;;
18732;SDS011;9495;51.210;2.934;2022-09-03T07:19:16;30.15;;;24.20;;
18732;SDS011;9495;51.210;2.934;2022-09-03T07:21:44;29.33;;;23.70;;
18732;SDS011;9495;51.210;2.934;2022-09-03T07:24:16;35.35;;;23.55;;
18732;SDS011;9495;51.210;2.934;2022-09-03T07:26:47;33.60;;;24.30;;
18732;SDS011;9495;51.210;2.934;2022-09-03T07:29:15;33.03;;;23.52;;
18732;SDS011;9495;51.210;2.934;2022-09-03T07:31:48;29.65;;;22.42;;
18732;SDS011;9495;51.210;2.934;2022-09-03T07:34:19;28.25;;;24.38;;
18732;SDS011;9495;51.210;2.934;2022-09-03T07:36:50;34.15;;;24.20;;
18732;SDS011;9495;51.210;2.934;2022-09-03T07:39:19;30.23;;;22.45;;
18732;SDS011;9495;51.210;2.934;2022-09-03T07:41:48;32.72;;;24.13;;
18732;SDS011;9495;51.210;2.934;2022-09-03T07:44:16;27.98;;;22.17;;
18732;SDS011;9495;51.210;2.934;2022-09-03T07:46:46;28.15;;;22.23;;
18732;SDS011;9495;51.210;2.934;2022-09-03T07:49:18;30.00;;;20.15;;
18732;SDS011;9495;51.210;2.934;2022-09-03T07:51:48;26.83;;;20.33;;
18732;SDS011;9495;51.210;2.934;2022-09-03T07:54:20;26.45;;;19.13;;
18732;SDS011;9495;51.210;2.934;2022-09-03T07:56:49;20.83;;;16.83;;
18732;SDS011;9495;51.210;2.934;2022-09-03T07:59:18;28.33;;;18.70;;
18732;SDS011;9495;51.210;2.934;2022-09-03T08:01:48;24.75;;;18.65;;
18732;SDS011;9495;51.210;2.934;2022-09-03T08:04:18;24.15;;;18.05;;
18732;SDS011;9495;51.210;2.934;2022-09-03T08:06:48;21.90;;;16.30;;
18732;SDS011;9495;51.210;2.934;2022-09-03T08:09:21;19.52;;;16.05;;
18732;SDS011;9495;51.210;2.934;2022-09-03T08:11:50;21.23;;;15.82;;
18732;SDS011;9495;51.210;2.934;2022-09-03T08:14:18;18.88;;;15.63;;
18732;SDS011;9495;51.210;2.934;2022-09-03T08:16:47;21.65;;;15.50;;
18732;SDS011;9495;51.210;2.934;2022-09-03T08:19:15;19.63;;;15.65;;
18732;SDS011;9495;51.210;2.934;2022-09-03T08:21:46;21.98;;;14.20;;
18732;SDS011;9495;51.210;2.934;2022-09-03T08:24:14;18.67;;;14.48;;
18732;SDS011;9495;51.210;2.934;2022-09-03T08:26:44;14.20;;;12.55;;
18732;SDS011;9495;51.210;2.934;2022-09-03T08:29:17;18.35;;;14.77;;
18732;SDS011;9495;51.210;2.934;2022-09-03T08:31:46;19.50;;;14.48;;
18732;SDS011;9495;51.210;2.934;2022-09-03T08:34:15;17.77;;;13.65;;
18732;SDS011;9495;51.210;2.934;2022-09-03T08:36:44;16.75;;;14.63;;
18732;SDS011;9495;51.210;2.934;2022-09-03T08:39:14;14.93;;;12.85;;
18732;SDS011;9495;51.210;2.934;2022-09-03T08:41:51;15.63;;;13.93;;
18732;SDS011;9495;51.210;2.934;2022-09-03T08:44:39;15.60;;;13.13;;
18732;SDS011;9495;51.210;2.934;2022-09-03T08:47:13;16.08;;;14.23;;
18732;SDS011;9495;51.210;2.934;2022-09-03T08:49:47;20.00;;;13.70;;
18732;SDS011;9495;51.210;2.934;2022-09-03T08:52:22;15.38;;;13.45;;
18732;SDS011;9495;51.210;2.934;2022-09-03T08:54:54;17.55;;;13.35;;
18732;SDS011;9495;51.210;2.934;2022-09-03T08:57:30;19.45;;;13.57;;
18732;SDS011;9495;51.210;2.934;2022-09-03T09:00:03;17.08;;;14.57;;
18732;SDS011;9495;51.210;2.934;2022-09-03T09:02:33;15.75;;;13.85;;
18732;SDS011;9495;51.210;2.934;2022-09-03T09:05:11;17.08;;;14.48;;
18732;SDS011;9495;51.210;2.934;2022-09-03T09:07:48;19.05;;;13.73;;
18732;SDS011;9495;51.210;2.934;2022-09-03T09:10:21;15.77;;;12.30;;
18732;SDS011;9495;51.210;2.934;2022-09-03T09:12:58;15.35;;;11.73;;
18732;SDS011;9495;51.210;2.934;2022-09-03T09:15:37;13.80;;;12.32;;
18732;SDS011;9495;51.210;2.934;2022-09-03T09:18:12;11.85;;;10.43;;
18732;SDS011;9495;51.210;2.934;2022-09-03T09:20:48;13.25;;;10.50;;
18732;SDS011;9495;51.210;2.934;2022-09-03T09:23:23;14.70;;;11.02;;
18732;SDS011;9495;51.210;2.934;2022-09-03T09:25:54;13.32;;;11.82;;
18732;SDS011;9495;51.210;2.934;2022-09-03T09:28:28;15.00;;;11.27;;
18732;SDS011;9495;51.210;2.934;2022-09-03T09:31:00;15.30;;;11.93;;
18732;SDS011;9495;51.210;2.934;2022-09-03T09:33:30;15.40;;;11.93;;
18732;SDS011;9495;51.210;2.934;2022-09-03T09:36:00;11.75;;;9.52;;
18732;SDS011;9495;51.210;2.934;2022-09-03T09:38:34;12.20;;;9.43;;
18732;SDS011;9495;51.210;2.934;2022-09-03T09:41:09;13.55;;;11.02;;
18732;SDS011;9495;51.210;2.934;2022-09-03T09:43:39;12.73;;;11.32;;
18732;SDS011;9495;51.210;2.934;2022-09-03T09:46:08;13.93;;;11.18;;
18732;SDS011;9495;51.210;2.934;2022-09-03T09:48:43;14.25;;;11.45;;
18732;SDS011;9495;51.210;2.934;2022-09-03T09:51:19;13.05;;;10.60;;
18732;SDS011;9495;51.210;2.934;2022-09-03T09:54:00;11.10;;;10.00;;
18732;SDS011;9495;51.210;2.934;2022-09-03T09:56:30;11.98;;;10.10;;
18732;SDS011;9495;51.210;2.934;2022-09-03T09:59:01;14.18;;;10.30;;
18732;SDS011;9495;51.210;2.934;2022-09-03T10:01:30;11.75;;;10.55;;
18732;SDS011;9495;51.210;2.934;2022-09-03T10:03:59;12.95;;;11.65;;
18732;SDS011;9495;51.210;2.934;2022-09-03T10:06:36;13.32;;;11.93;;
18732;SDS011;9495;51.210;2.934;2022-09-03T10:09:25;13.57;;;11.95;;
18732;SDS011;9495;51.210;2.934;2022-09-03T10:12:00;16.17;;;13.43;;
18732;SDS011;9495;51.210;2.934;2022-09-03T10:14:37;15.35;;;11.93;;
18732;SDS011;9495;51.210;2.934;2022-09-03T10:17:10;18.20;;;11.85;;
18732;SDS011;9495;51.210;2.934;2022-09-03T10:19:46;12.82;;;10.25;;
18732;SDS011;9495;51.210;2.934;2022-09-03T10:22:38;15.20;;;11.40;;
18732;SDS011;9495;51.210;2.934;2022-09-03T10:25:24;14.40;;;12.02;;
18732;SDS011;9495;51.210;2.934;2022-09-03T10:27:58;14.18;;;10.93;;
18732;SDS011;9495;51.210;2.934;2022-09-03T10:30:27;13.52;;;10.07;;
18732;SDS011;9495;51.210;2.934;2022-09-03T10:33:01;13.63;;;10.18;;
18732;SDS011;9495;51.210;2.934;2022-09-03T10:35:39;13.05;;;10.20;;
18732;SDS011;9495;51.210;2.934;2022-09-03T10:38:15;15.00;;;12.07;;
18732;SDS011;9495;51.210;2.934;2022-09-03T10:40:50;14.32;;;12.27;;
18732;SDS011;9495;51.210;2.934;2022-09-03T10:43:33;15.38;;;12.18;;
18732;SDS011;9495;51.210;2.934;2022-09-03T10:46:18;17.48;;;13.13;;
18732;SDS011;9495;51.210;2.934;2022-09-03T10:48:57;19.30;;;13.48;;
18732;SDS011;9495;51.210;2.934;2022-09-03T10:51:38;15.82;;;12.20;;
18732;SDS011;9495;51.210;2.934;2022-09-03T10:54:18;15.75;;;12.35;;
18732;SDS011;9495;51.210;2.934;2022-09-03T10:57:00;17.27;;;13.85;;
18732;SDS011;9495;51.210;2.934;2022-09-03T10:59:38;14.80;;;13.07;;
18732;SDS011;9495;51.210;2.934;2022-09-03T11:02:22;12.38;;;10.90;;
18732;SDS011;9495;51.210;2.934;2022-09-03T11:05:04;14.88;;;12.45;;
18732;SDS011;9495;51.210;2.934;2022-09-03T11:07:35;18.33;;;13.02;;
18732;SDS011;9495;51.210;2.934;2022-09-03T11:10:11;15.32;;;12.07;;
18732;SDS011;9495;51.210;2.934;2022-09-03T11:12:47;15.25;;;12.57;;
18732;SDS011;9495;51.210;2.934;2022-09-03T11:15:22;15.90;;;14.00;;
18732;SDS011;9495;51.210;2.934;2022-09-03T11:17:56;16.17;;;14.07;;
18732;SDS011;9495;51.210;2.934;2022-09-03T11:20:28;18.98;;;14.05;;
18732;SDS011;9495;51.210;2.934;2022-09-03T11:22:58;15.95;;;13.50;;
18732;SDS011;9495;51.210;2.934;2022-09-03T11:25:30;19.20;;;15.35;;
18732;SDS011;9495;51.210;2.934;2022-09-03T11:28:04;19.38;;;16.20;;
18732;SDS011;9495;51.210;2.934;2022-09-03T11:30:51;16.15;;;13.02;;
18732;SDS011;9495;51.210;2.934;2022-09-03T11:33:40;14.35;;;12.82;;
18732;SDS011;9495;51.210;2.934;2022-09-03T11:36:19;15.05;;;13.45;;
18732;SDS011;9495;51.210;2.934;2022-09-03T11:38:53;14.77;;;12.65;;
18732;SDS011;9495;51.210;2.934;2022-09-03T11:41:22;12.43;;;10.68;;
18732;SDS011;9495;51.210;2.934;2022-09-03T11:43:54;15.80;;;11.30;;
18732;SDS011;9495;51.210;2.934;2022-09-03T11:46:29;13.48;;;11.93;;
18732;SDS011;9495;51.210;2.934;2022-09-03T11:49:09;13.80;;;10.52;;
18732;SDS011;9495;51.210;2.934;2022-09-03T11:51:39;15.27;;;11.98;;
18732;SDS011;9495;51.210;2.934;2022-09-03T11:54:22;12.27;;;10.75;;
18732;SDS011;9495;51.210;2.934;2022-09-03T11:57:02;13.20;;;11.77;;
18732;SDS011;9495;51.210;2.934;2022-09-03T11:59:38;14.32;;;12.63;;
18732;SDS011;9495;51.210;2.934;2022-09-03T12:02:18;18.58;;;11.95;;
18732;SDS011;9495;51.210;2.934;2022-09-03T12:05:02;14.95;;;12.80;;
18732;SDS011;9495;51.210;2.934;2022-09-03T12:07:47;16.35;;;13.02;;
18732;SDS011;9495;51.210;2.934;2022-09-03T12:10:40;14.48;;;12.75;;
18732;SDS011;9495;51.210;2.934;2022-09-03T12:13:21;16.02;;;14.43;;
18732;SDS011;9495;51.210;2.934;2022-09-03T12:16:12;16.98;;;12.82;;
18732;SDS011;9495;51.210;2.934;2022-09-03T12:18:59;16.00;;;13.32;;
18732;SDS011;9495;51.210;2.934;2022-09-03T12:21:38;16.60;;;12.57;;
18732;SDS011;9495;51.210;2.934;2022-09-03T12:24:10;15.93;;;12.68;;
18732;SDS011;9495;51.210;2.934;2022-09-03T12:26:39;11.75;;;10.55;;
18732;SDS011;9495;51.210;2.934;2022-09-03T12:29:19;11.57;;;10.45;;
18732;SDS011;9495;51.210;2.934;2022-09-03T12:31:54;14.05;;;12.48;;
18732;SDS011;9495;51.210;2.934;2022-09-03T12:34:32;17.95;;;13.63;;
18732;SDS011;9495;51.210;2.934;2022-09-03T12:37:00;20.40;;;13.30;;
18732;SDS011;9495;51.210;2.934;2022-09-03T12:39:28;14.70;;;12.50;;
18732;SDS011;9495;51.210;2.934;2022-09-03T12:42:18;17.30;;;12.73;;
18732;SDS011;9495;51.210;2.934;2022-09-03T12:44:50;14.52;;;12.90;;
18732;SDS011;9495;51.210;2.934;2022-09-03T12:47:21;15.27;;;13.05;;
18732;SDS011;9495;51.210;2.934;2022-09-03T12:50:06;11.00;;;9.45;;
18732;SDS011;9495;51.210;2.934;2022-09-03T12:52:37;9.85;;;8.85;;
18732;SDS011;9495;51.210;2.934;2022-09-03T12:55:14;12.07;;;9.05;;
18732;SDS011;9495;51.210;2.934;2022-09-03T12:57:55;9.88;;;8.82;;
18732;SDS011;9495;51.210;2.934;2022-09-03T13:00:29;8.88;;;7.97;;
18732;SDS011;9495;51.210;2.934;2022-09-03T13:03:01;10.23;;;7.97;;
18732;SDS011;9495;51.210;2.934;2022-09-03T13:05:33;8.93;;;8.02;;
18732;SDS011;9495;51.210;2.934;2022-09-03T13:08:03;9.45;;;6.97;;
18732;SDS011;9495;51.210;2.934;2022-09-03T13:10:35;6.78;;;6.10;;
18732;SDS011;9495;51.210;2.934;2022-09-03T13:13:14;7.22;;;6.13;;
18732;SDS011;9495;51.210;2.934;2022-09-03T13:18:50;6.10;;;5.50;;
18732;SDS011;9495;51.210;2.934;2022-09-03T13:21:28;6.15;;;5.40;;
18732;SDS011;9495;51.210;2.934;2022-09-03T13:26:57;5.97;;;5.38;;
18732;SDS011;9495;51.210;2.934;2022-09-03T13:29:37;7.30;;;5.85;;
18732;SDS011;9495;51.210;2.934;2022-09-03T13:32:22;6.65;;;5.55;;
18732;SDS011;9495;51.210;2.934;2022-09-03T13:35:03;6.20;;;4.40;;
18732;SDS011;9495;51.210;2.934;2022-09-03T13:37:36;5.15;;;4.20;;
18732;SDS011;9495;51.210;2.934;2022-09-03T13:40:13;4.68;;;4.25;;
18732;SDS011;9495;51.210;2.934;2022-09-03T13:42:45;5.72;;;4.38;;
18732;SDS011;9495;51.210;2.934;2022-09-03T13:45:25;5.25;;;4.75;;
18732;SDS011;9495;51.210;2.934;2022-09-03T13:47:59;6.85;;;4.30;;
18732;SDS011;9495;51.210;2.934;2022-09-03T13:50:52;5.93;;;4.43;;
18732;SDS011;9495;51.210;2.934;2022-09-03T13:53:31;4.50;;;4.10;;
18732;SDS011;9495;51.210;2.934;2022-09-03T13:56:13;4.63;;;4.18;;
18732;SDS011;9495;51.210;2.934;2022-09-03T13:58:47;4.55;;;4.05;;
18732;SDS011;9495;51.210;2.934;2022-09-03T14:01:24;4.70;;;4.18;;
18732;SDS011;9495;51.210;2.934;2022-09-03T14:04:02;4.50;;;4.10;;
18732;SDS011;9495;51.210;2.934;2022-09-03T14:06:37;4.05;;;3.72;;
18732;SDS011;9495;51.210;2.934;2022-09-03T14:09:11;5.78;;;4.90;;
18732;SDS011;9495;51.210;2.934;2022-09-03T14:11:48;5.10;;;4.07;;
18732;SDS011;9495;51.210;2.934;2022-09-03T14:14:30;5.70;;;4.07;;
18732;SDS011;9495;51.210;2.934;2022-09-03T14:17:12;6.30;;;3.97;;
18732;SDS011;9495;51.210;2.934;2022-09-03T14:19:46;5.05;;;4.18;;
18732;SDS011;9495;51.210;2.934;2022-09-03T14:22:25;4.28;;;3.80;;
18732;SDS011;9495;51.210;2.934;2022-09-03T14:25:01;5.00;;;3.80;;
18732;SDS011;9495;51.210;2.934;2022-09-03T14:27:36;4.55;;;4.13;;
18732;SDS011;9495;51.210;2.934;2022-09-03T14:30:05;4.55;;;4.10;;
18732;SDS011;9495;51.210;2.934;2022-09-03T14:32:45;5.35;;;4.45;;
18732;SDS011;9495;51.210;2.934;2022-09-03T14:35:38;5.10;;;4.60;;
18732;SDS011;9495;51.210;2.934;2022-09-03T14:38:28;5.65;;;4.05;;
18732;SDS011;9495;51.210;2.934;2022-09-03T14:41:05;9.20;;;4.97;;
18732;SDS011;9495;51.210;2.934;2022-09-03T14:44:10;5.65;;;4.32;;
18732;SDS011;9495;51.210;2.934;2022-09-03T14:46:59;7.78;;;5.70;;
18732;SDS011;9495;51.210;2.934;2022-09-03T14:49:43;5.50;;;4.88;;
18732;SDS011;9495;51.210;2.934;2022-09-03T14:52:32;5.63;;;5.07;;
18732;SDS011;9495;51.210;2.934;2022-09-03T14:55:34;5.57;;;4.85;;
18732;SDS011;9495;51.210;2.934;2022-09-03T14:58:19;5.30;;;4.35;;
18732;SDS011;9495;51.210;2.934;2022-09-03T15:00:56;7.00;;;4.88;;
18732;SDS011;9495;51.210;2.934;2022-09-03T15:03:42;5.82;;;5.22;;
18732;SDS011;9495;51.210;2.934;2022-09-03T15:06:27;5.07;;;4.57;;
18732;SDS011;9495;51.210;2.934;2022-09-03T15:09:10;6.75;;;5.07;;
18732;SDS011;9495;51.210;2.934;2022-09-03T15:11:50;7.60;;;5.18;;
18732;SDS011;9495;51.210;2.934;2022-09-03T15:14:23;16.90;;;13.77;;
18732;SDS011;9495;51.210;2.934;2022-09-03T15:16:58;17.45;;;13.15;;
18732;SDS011;9495;51.210;2.934;2022-09-03T15:19:35;16.33;;;13.10;;
18732;SDS011;9495;51.210;2.934;2022-09-03T15:22:23;20.40;;;15.00;;
18732;SDS011;9495;51.210;2.934;2022-09-03T15:25:07;20.85;;;17.30;;
18732;SDS011;9495;51.210;2.934;2022-09-03T15:27:50;22.02;;;18.58;;
18732;SDS011;9495;51.210;2.934;2022-09-03T15:30:31;22.23;;;18.20;;